sensor_id;sensor_type;location;lat;lon;timestamp;P1;durP1;ratioP1;P2;durP2;ratioP2
75488;SDS011;64069;46.396;48.102;2022-12-18T00:00:59;36.33;;;12.52;;
75488;SDS011;64069;46.396;48.102;2022-12-18T00:03:25;35.13;;;12.18;;
75488;SDS011;64069;46.396;48.102;2022-12-18T00:05:52;32.70;;;10.80;;
75488;SDS011;64069;46.396;48.102;2022-12-18T00:08:18;24.80;;;8.75;;
75488;SDS011;64069;46.396;48.102;2022-12-18T00:10:44;23.42;;;8.40;;
75488;SDS011;64069;46.396;48.102;2022-12-18T00:13:11;21.95;;;9.27;;
75488;SDS011;64069;46.396;48.102;2022-12-18T00:15:38;27.63;;;10.50;;
75488;SDS011;64069;46.396;48.102;2022-12-18T00:18:05;32.00;;;10.38;;
75488;SDS011;64069;46.396;48.102;2022-12-18T00:20:32;20.23;;;8.23;;
75488;SDS011;64069;46.396;48.102;2022-12-18T00:23:04;33.25;;;8.75;;
75488;SDS011;64069;46.396;48.102;2022-12-18T00:25:34;41.20;;;9.80;;
75488;SDS011;64069;46.396;48.102;2022-12-18T00:28:01;28.25;;;10.60;;
75488;SDS011;64069;46.396;48.102;2022-12-18T00:30:28;24.55;;;9.65;;
75488;SDS011;64069;46.396;48.102;2022-12-18T00:32:54;32.30;;;11.02;;
75488;SDS011;64069;46.396;48.102;2022-12-18T00:35:20;28.50;;;10.13;;
75488;SDS011;64069;46.396;48.102;2022-12-18T00:37:46;24.13;;;10.52;;
75488;SDS011;64069;46.396;48.102;2022-12-18T00:40:12;34.83;;;10.27;;
75488;SDS011;64069;46.396;48.102;2022-12-18T00:42:38;25.67;;;9.98;;
75488;SDS011;64069;46.396;48.102;2022-12-18T00:45:30;23.80;;;8.98;;
75488;SDS011;64069;46.396;48.102;2022-12-18T00:47:57;25.73;;;8.13;;
75488;SDS011;64069;46.396;48.102;2022-12-18T00:50:23;21.90;;;8.35;;
75488;SDS011;64069;46.396;48.102;2022-12-18T00:52:50;23.35;;;7.82;;
75488;SDS011;64069;46.396;48.102;2022-12-18T00:55:17;25.75;;;7.57;;
75488;SDS011;64069;46.396;48.102;2022-12-18T00:57:45;22.40;;;7.93;;
75488;SDS011;64069;46.396;48.102;2022-12-18T01:00:13;19.75;;;8.25;;
75488;SDS011;64069;46.396;48.102;2022-12-18T01:02:40;22.15;;;9.13;;
75488;SDS011;64069;46.396;48.102;2022-12-18T01:05:07;21.05;;;9.55;;
75488;SDS011;64069;46.396;48.102;2022-12-18T01:07:35;23.95;;;8.57;;
75488;SDS011;64069;46.396;48.102;2022-12-18T01:10:02;26.30;;;9.88;;
75488;SDS011;64069;46.396;48.102;2022-12-18T01:12:29;21.63;;;9.32;;
75488;SDS011;64069;46.396;48.102;2022-12-18T01:14:55;27.95;;;9.07;;
75488;SDS011;64069;46.396;48.102;2022-12-18T01:17:21;22.00;;;8.13;;
75488;SDS011;64069;46.396;48.102;2022-12-18T01:19:49;23.55;;;8.50;;
75488;SDS011;64069;46.396;48.102;2022-12-18T01:22:15;27.75;;;9.65;;
75488;SDS011;64069;46.396;48.102;2022-12-18T01:24:41;37.15;;;10.50;;
75488;SDS011;64069;46.396;48.102;2022-12-18T01:27:07;29.67;;;9.82;;
75488;SDS011;64069;46.396;48.102;2022-12-18T01:29:33;23.48;;;8.90;;
75488;SDS011;64069;46.396;48.102;2022-12-18T01:31:59;27.15;;;9.38;;
75488;SDS011;64069;46.396;48.102;2022-12-18T01:34:25;19.15;;;8.60;;
75488;SDS011;64069;46.396;48.102;2022-12-18T01:36:51;25.67;;;8.73;;
75488;SDS011;64069;46.396;48.102;2022-12-18T01:39:17;25.35;;;9.65;;
75488;SDS011;64069;46.396;48.102;2022-12-18T01:41:44;30.52;;;10.25;;
75488;SDS011;64069;46.396;48.102;2022-12-18T01:45:04;28.98;;;9.07;;
75488;SDS011;64069;46.396;48.102;2022-12-18T01:47:43;21.55;;;6.95;;
75488;SDS011;64069;46.396;48.102;2022-12-18T01:50:15;26.08;;;9.38;;
75488;SDS011;64069;46.396;48.102;2022-12-18T01:52:45;24.50;;;9.77;;
75488;SDS011;64069;46.396;48.102;2022-12-18T01:55:15;23.10;;;8.52;;
75488;SDS011;64069;46.396;48.102;2022-12-18T01:57:43;24.60;;;8.38;;
75488;SDS011;64069;46.396;48.102;2022-12-18T02:00:11;22.88;;;9.05;;
75488;SDS011;64069;46.396;48.102;2022-12-18T02:02:43;21.50;;;8.43;;
75488;SDS011;64069;46.396;48.102;2022-12-18T02:05:12;25.13;;;9.48;;
75488;SDS011;64069;46.396;48.102;2022-12-18T02:07:53;26.50;;;9.75;;
75488;SDS011;64069;46.396;48.102;2022-12-18T02:18:36;24.60;;;8.95;;
75488;SDS011;64069;46.396;48.102;2022-12-18T02:21:08;21.77;;;9.30;;
75488;SDS011;64069;46.396;48.102;2022-12-18T02:26:23;20.33;;;9.52;;
75488;SDS011;64069;46.396;48.102;2022-12-18T02:29:15;28.60;;;10.52;;
75488;SDS011;64069;46.396;48.102;2022-12-18T02:31:47;27.80;;;10.38;;
75488;SDS011;64069;46.396;48.102;2022-12-18T02:34:18;27.65;;;10.05;;
75488;SDS011;64069;46.396;48.102;2022-12-18T02:36:47;27.50;;;9.02;;
75488;SDS011;64069;46.396;48.102;2022-12-18T02:39:15;28.05;;;9.73;;
75488;SDS011;64069;46.396;48.102;2022-12-18T02:41:56;25.25;;;9.13;;
75488;SDS011;64069;46.396;48.102;2022-12-18T02:44:24;34.67;;;11.07;;
75488;SDS011;64069;46.396;48.102;2022-12-18T02:46:51;26.25;;;8.40;;
75488;SDS011;64069;46.396;48.102;2022-12-18T02:49:25;24.83;;;10.10;;
75488;SDS011;64069;46.396;48.102;2022-12-18T02:55:15;24.20;;;10.52;;
75488;SDS011;64069;46.396;48.102;2022-12-18T02:57:50;32.20;;;10.65;;
75488;SDS011;64069;46.396;48.102;2022-12-18T03:03:13;37.97;;;11.15;;
75488;SDS011;64069;46.396;48.102;2022-12-18T03:08:52;29.88;;;10.32;;
75488;SDS011;64069;46.396;48.102;2022-12-18T03:11:24;30.63;;;10.55;;
75488;SDS011;64069;46.396;48.102;2022-12-18T03:14:12;25.73;;;9.38;;
75488;SDS011;64069;46.396;48.102;2022-12-18T03:16:42;33.90;;;10.30;;
75488;SDS011;64069;46.396;48.102;2022-12-18T03:19:11;31.40;;;9.98;;
75488;SDS011;64069;46.396;48.102;2022-12-18T03:21:52;36.47;;;12.88;;
75488;SDS011;64069;46.396;48.102;2022-12-18T03:24:22;39.63;;;13.65;;
75488;SDS011;64069;46.396;48.102;2022-12-18T03:26:51;36.38;;;13.10;;
75488;SDS011;64069;46.396;48.102;2022-12-18T03:29:32;30.83;;;11.65;;
75488;SDS011;64069;46.396;48.102;2022-12-18T03:32:05;31.80;;;11.38;;
75488;SDS011;64069;46.396;48.102;2022-12-18T03:34:37;46.25;;;10.93;;
75488;SDS011;64069;46.396;48.102;2022-12-18T03:37:07;30.37;;;10.07;;
75488;SDS011;64069;46.396;48.102;2022-12-18T03:39:34;25.75;;;10.40;;
75488;SDS011;64069;46.396;48.102;2022-12-18T03:42:12;34.83;;;9.98;;
75488;SDS011;64069;46.396;48.102;2022-12-18T03:55:27;29.27;;;9.88;;
75488;SDS011;64069;46.396;48.102;2022-12-18T03:57:59;22.30;;;10.10;;
75488;SDS011;64069;46.396;48.102;2022-12-18T04:00:38;34.45;;;9.27;;
75488;SDS011;64069;46.396;48.102;2022-12-18T04:03:07;31.15;;;10.32;;
75488;SDS011;64069;46.396;48.102;2022-12-18T04:05:41;29.90;;;9.82;;
75488;SDS011;64069;46.396;48.102;2022-12-18T04:08:09;39.13;;;12.93;;
75488;SDS011;64069;46.396;48.102;2022-12-18T04:10:40;27.33;;;9.43;;
75488;SDS011;64069;46.396;48.102;2022-12-18T04:13:06;26.75;;;8.85;;
75488;SDS011;64069;46.396;48.102;2022-12-18T04:15:34;32.22;;;9.63;;
75488;SDS011;64069;46.396;48.102;2022-12-18T04:18:03;26.08;;;9.43;;
75488;SDS011;64069;46.396;48.102;2022-12-18T04:20:36;22.83;;;9.63;;
75488;SDS011;64069;46.396;48.102;2022-12-18T04:23:02;24.45;;;9.23;;
75488;SDS011;64069;46.396;48.102;2022-12-18T04:25:28;28.88;;;10.90;;
75488;SDS011;64069;46.396;48.102;2022-12-18T04:28:04;22.70;;;9.75;;
75488;SDS011;64069;46.396;48.102;2022-12-18T04:30:31;35.35;;;9.75;;
75488;SDS011;64069;46.396;48.102;2022-12-18T04:32:58;20.42;;;8.27;;
75488;SDS011;64069;46.396;48.102;2022-12-18T04:35:24;27.88;;;9.38;;
75488;SDS011;64069;46.396;48.102;2022-12-18T04:37:50;21.88;;;7.65;;
75488;SDS011;64069;46.396;48.102;2022-12-18T04:40:16;30.83;;;9.85;;
75488;SDS011;64069;46.396;48.102;2022-12-18T04:42:45;20.52;;;7.60;;
75488;SDS011;64069;46.396;48.102;2022-12-18T04:45:11;20.98;;;7.82;;
75488;SDS011;64069;46.396;48.102;2022-12-18T04:47:37;30.27;;;7.53;;
75488;SDS011;64069;46.396;48.102;2022-12-18T04:50:03;24.25;;;7.82;;
75488;SDS011;64069;46.396;48.102;2022-12-18T04:52:33;22.20;;;7.75;;
75488;SDS011;64069;46.396;48.102;2022-12-18T04:54:58;28.65;;;8.80;;
75488;SDS011;64069;46.396;48.102;2022-12-18T04:57:24;21.65;;;8.18;;
75488;SDS011;64069;46.396;48.102;2022-12-18T04:59:51;23.10;;;8.48;;
75488;SDS011;64069;46.396;48.102;2022-12-18T05:02:17;25.45;;;8.57;;
75488;SDS011;64069;46.396;48.102;2022-12-18T05:04:43;22.08;;;8.15;;
75488;SDS011;64069;46.396;48.102;2022-12-18T05:07:09;29.52;;;9.77;;
75488;SDS011;64069;46.396;48.102;2022-12-18T05:09:35;30.85;;;11.18;;
75488;SDS011;64069;46.396;48.102;2022-12-18T05:12:00;37.50;;;13.48;;
75488;SDS011;64069;46.396;48.102;2022-12-18T05:14:26;32.55;;;11.55;;
75488;SDS011;64069;46.396;48.102;2022-12-18T05:16:54;41.97;;;15.10;;
75488;SDS011;64069;46.396;48.102;2022-12-18T05:19:20;33.85;;;13.18;;
75488;SDS011;64069;46.396;48.102;2022-12-18T05:21:46;36.72;;;12.18;;
75488;SDS011;64069;46.396;48.102;2022-12-18T05:24:12;35.30;;;11.80;;
75488;SDS011;64069;46.396;48.102;2022-12-18T05:26:38;36.75;;;12.80;;
75488;SDS011;64069;46.396;48.102;2022-12-18T05:29:04;29.30;;;10.57;;
75488;SDS011;64069;46.396;48.102;2022-12-18T05:31:30;34.78;;;11.70;;
75488;SDS011;64069;46.396;48.102;2022-12-18T05:33:57;41.40;;;11.65;;
75488;SDS011;64069;46.396;48.102;2022-12-18T05:36:23;31.38;;;11.32;;
75488;SDS011;64069;46.396;48.102;2022-12-18T05:38:49;44.08;;;10.63;;
75488;SDS011;64069;46.396;48.102;2022-12-18T05:41:15;26.60;;;9.80;;
75488;SDS011;64069;46.396;48.102;2022-12-18T05:43:41;27.00;;;9.15;;
75488;SDS011;64069;46.396;48.102;2022-12-18T05:46:13;28.42;;;10.90;;
75488;SDS011;64069;46.396;48.102;2022-12-18T05:48:45;33.88;;;10.82;;
75488;SDS011;64069;46.396;48.102;2022-12-18T05:51:12;27.08;;;10.02;;
75488;SDS011;64069;46.396;48.102;2022-12-18T05:53:41;23.30;;;8.98;;
75488;SDS011;64069;46.396;48.102;2022-12-18T05:56:08;32.13;;;11.57;;
75488;SDS011;64069;46.396;48.102;2022-12-18T05:58:36;32.42;;;11.85;;
75488;SDS011;64069;46.396;48.102;2022-12-18T06:01:06;36.05;;;11.68;;
75488;SDS011;64069;46.396;48.102;2022-12-18T06:03:36;33.80;;;10.98;;
75488;SDS011;64069;46.396;48.102;2022-12-18T06:06:02;35.05;;;11.43;;
75488;SDS011;64069;46.396;48.102;2022-12-18T06:08:28;38.10;;;13.05;;
75488;SDS011;64069;46.396;48.102;2022-12-18T06:10:57;40.53;;;13.05;;
75488;SDS011;64069;46.396;48.102;2022-12-18T06:13:23;40.95;;;14.55;;
75488;SDS011;64069;46.396;48.102;2022-12-18T06:15:49;37.78;;;14.30;;
75488;SDS011;64069;46.396;48.102;2022-12-18T06:18:15;43.67;;;13.93;;
75488;SDS011;64069;46.396;48.102;2022-12-18T06:20:41;39.42;;;14.55;;
75488;SDS011;64069;46.396;48.102;2022-12-18T06:23:09;42.13;;;15.52;;
75488;SDS011;64069;46.396;48.102;2022-12-18T06:25:36;48.55;;;14.80;;
75488;SDS011;64069;46.396;48.102;2022-12-18T06:28:03;48.25;;;15.73;;
75488;SDS011;64069;46.396;48.102;2022-12-18T06:30:32;50.25;;;16.40;;
75488;SDS011;64069;46.396;48.102;2022-12-18T06:32:58;58.40;;;15.73;;
75488;SDS011;64069;46.396;48.102;2022-12-18T06:35:24;52.65;;;18.60;;
75488;SDS011;64069;46.396;48.102;2022-12-18T06:37:50;52.42;;;18.08;;
75488;SDS011;64069;46.396;48.102;2022-12-18T06:40:16;54.40;;;17.95;;
75488;SDS011;64069;46.396;48.102;2022-12-18T06:42:42;62.22;;;17.30;;
75488;SDS011;64069;46.396;48.102;2022-12-18T06:45:09;57.22;;;18.20;;
75488;SDS011;64069;46.396;48.102;2022-12-18T06:47:36;50.67;;;17.98;;
75488;SDS011;64069;46.396;48.102;2022-12-18T06:50:02;55.35;;;17.25;;
75488;SDS011;64069;46.396;48.102;2022-12-18T06:52:28;56.95;;;16.67;;
75488;SDS011;64069;46.396;48.102;2022-12-18T06:54:57;48.38;;;16.70;;
75488;SDS011;64069;46.396;48.102;2022-12-18T06:57:27;56.97;;;18.85;;
75488;SDS011;64069;46.396;48.102;2022-12-18T06:59:53;54.78;;;17.95;;
75488;SDS011;64069;46.396;48.102;2022-12-18T07:02:19;48.13;;;17.25;;
75488;SDS011;64069;46.396;48.102;2022-12-18T07:04:45;54.33;;;17.58;;
75488;SDS011;64069;46.396;48.102;2022-12-18T07:07:11;57.33;;;18.58;;
75488;SDS011;64069;46.396;48.102;2022-12-18T07:09:37;57.53;;;19.70;;
75488;SDS011;64069;46.396;48.102;2022-12-18T07:12:03;55.17;;;18.52;;
75488;SDS011;64069;46.396;48.102;2022-12-18T07:14:34;62.15;;;21.13;;
75488;SDS011;64069;46.396;48.102;2022-12-18T07:17:00;64.18;;;21.15;;
75488;SDS011;64069;46.396;48.102;2022-12-18T07:19:26;60.22;;;22.08;;
75488;SDS011;64069;46.396;48.102;2022-12-18T07:21:52;66.55;;;22.33;;
75488;SDS011;64069;46.396;48.102;2022-12-18T07:24:18;62.63;;;20.50;;
75488;SDS011;64069;46.396;48.102;2022-12-18T07:26:47;65.45;;;23.15;;
75488;SDS011;64069;46.396;48.102;2022-12-18T07:29:17;59.35;;;21.05;;
75488;SDS011;64069;46.396;48.102;2022-12-18T07:31:43;60.53;;;20.20;;
75488;SDS011;64069;46.396;48.102;2022-12-18T07:34:13;57.95;;;20.00;;
75488;SDS011;64069;46.396;48.102;2022-12-18T07:36:40;62.03;;;21.13;;
75488;SDS011;64069;46.396;48.102;2022-12-18T07:39:06;58.53;;;21.85;;
75488;SDS011;64069;46.396;48.102;2022-12-18T07:41:32;57.72;;;21.20;;
75488;SDS011;64069;46.396;48.102;2022-12-18T07:44:10;54.63;;;21.58;;
75488;SDS011;64069;46.396;48.102;2022-12-18T07:46:36;68.45;;;21.33;;
75488;SDS011;64069;46.396;48.102;2022-12-18T07:49:03;61.88;;;23.05;;
75488;SDS011;64069;46.396;48.102;2022-12-18T07:51:29;54.47;;;19.45;;
75488;SDS011;64069;46.396;48.102;2022-12-18T07:53:56;61.40;;;22.58;;
75488;SDS011;64069;46.396;48.102;2022-12-18T07:56:22;64.18;;;20.38;;
75488;SDS011;64069;46.396;48.102;2022-12-18T07:58:52;58.97;;;21.83;;
75488;SDS011;64069;46.396;48.102;2022-12-18T08:01:19;55.22;;;20.02;;
75488;SDS011;64069;46.396;48.102;2022-12-18T08:03:45;57.05;;;20.15;;
75488;SDS011;64069;46.396;48.102;2022-12-18T08:06:10;64.85;;;21.17;;
75488;SDS011;64069;46.396;48.102;2022-12-18T08:08:36;55.97;;;20.77;;
75488;SDS011;64069;46.396;48.102;2022-12-18T08:11:02;59.72;;;20.20;;
75488;SDS011;64069;46.396;48.102;2022-12-18T08:13:29;63.40;;;21.95;;
75488;SDS011;64069;46.396;48.102;2022-12-18T08:15:58;56.58;;;19.88;;
75488;SDS011;64069;46.396;48.102;2022-12-18T08:18:26;60.65;;;21.02;;
75488;SDS011;64069;46.396;48.102;2022-12-18T08:20:52;51.67;;;18.98;;
75488;SDS011;64069;46.396;48.102;2022-12-18T08:23:19;51.83;;;19.75;;
75488;SDS011;64069;46.396;48.102;2022-12-18T08:25:45;58.60;;;20.90;;
75488;SDS011;64069;46.396;48.102;2022-12-18T08:28:16;62.20;;;19.40;;
75488;SDS011;64069;46.396;48.102;2022-12-18T08:30:42;53.83;;;19.10;;
75488;SDS011;64069;46.396;48.102;2022-12-18T08:33:08;52.10;;;17.48;;
75488;SDS011;64069;46.396;48.102;2022-12-18T08:35:34;48.60;;;19.27;;
75488;SDS011;64069;46.396;48.102;2022-12-18T08:38:02;53.70;;;19.42;;
75488;SDS011;64069;46.396;48.102;2022-12-18T08:40:28;50.58;;;17.35;;
75488;SDS011;64069;46.396;48.102;2022-12-18T08:42:55;53.90;;;17.83;;
75488;SDS011;64069;46.396;48.102;2022-12-18T08:45:40;54.08;;;19.58;;
75488;SDS011;64069;46.396;48.102;2022-12-18T08:48:06;61.42;;;20.77;;
75488;SDS011;64069;46.396;48.102;2022-12-18T08:50:31;53.47;;;21.33;;
75488;SDS011;64069;46.396;48.102;2022-12-18T08:52:57;54.10;;;20.25;;
75488;SDS011;64069;46.396;48.102;2022-12-18T08:55:23;59.83;;;20.92;;
75488;SDS011;64069;46.396;48.102;2022-12-18T08:57:50;58.53;;;21.20;;
75488;SDS011;64069;46.396;48.102;2022-12-18T09:00:16;56.70;;;20.92;;
75488;SDS011;64069;46.396;48.102;2022-12-18T09:02:42;56.60;;;20.70;;
75488;SDS011;64069;46.396;48.102;2022-12-18T09:05:08;55.47;;;20.55;;
75488;SDS011;64069;46.396;48.102;2022-12-18T09:07:34;59.50;;;22.88;;
75488;SDS011;64069;46.396;48.102;2022-12-18T09:10:00;56.10;;;22.30;;
75488;SDS011;64069;46.396;48.102;2022-12-18T09:12:26;47.22;;;18.17;;
75488;SDS011;64069;46.396;48.102;2022-12-18T09:14:55;51.05;;;20.60;;
75488;SDS011;64069;46.396;48.102;2022-12-18T09:17:22;52.72;;;21.08;;
75488;SDS011;64069;46.396;48.102;2022-12-18T09:19:47;48.63;;;19.15;;
75488;SDS011;64069;46.396;48.102;2022-12-18T09:22:17;53.72;;;19.08;;
75488;SDS011;64069;46.396;48.102;2022-12-18T09:24:43;45.63;;;20.25;;
75488;SDS011;64069;46.396;48.102;2022-12-18T09:27:11;45.50;;;16.60;;
75488;SDS011;64069;46.396;48.102;2022-12-18T09:29:37;56.97;;;21.33;;
75488;SDS011;64069;46.396;48.102;2022-12-18T09:32:03;56.75;;;17.55;;
75488;SDS011;64069;46.396;48.102;2022-12-18T09:34:30;112.32;;;21.02;;
75488;SDS011;64069;46.396;48.102;2022-12-18T09:36:56;42.15;;;16.52;;
75488;SDS011;64069;46.396;48.102;2022-12-18T09:39:21;44.45;;;16.70;;
75488;SDS011;64069;46.396;48.102;2022-12-18T09:41:53;61.33;;;23.88;;
75488;SDS011;64069;46.396;48.102;2022-12-18T09:46:56;51.72;;;21.55;;
75488;SDS011;64069;46.396;48.102;2022-12-18T09:49:43;48.42;;;18.63;;
75488;SDS011;64069;46.396;48.102;2022-12-18T09:52:12;48.40;;;17.88;;
75488;SDS011;64069;46.396;48.102;2022-12-18T09:57:37;45.67;;;15.90;;
75488;SDS011;64069;46.396;48.102;2022-12-18T10:00:15;37.60;;;14.48;;
75488;SDS011;64069;46.396;48.102;2022-12-18T10:02:46;37.55;;;14.00;;
75488;SDS011;64069;46.396;48.102;2022-12-18T10:05:14;37.47;;;14.68;;
75488;SDS011;64069;46.396;48.102;2022-12-18T10:10:49;40.63;;;15.75;;
75488;SDS011;64069;46.396;48.102;2022-12-18T10:19:10;32.80;;;13.70;;
75488;SDS011;64069;46.396;48.102;2022-12-18T10:22:16;36.65;;;14.80;;
75488;SDS011;64069;46.396;48.102;2022-12-18T10:27:55;35.07;;;13.87;;
75488;SDS011;64069;46.396;48.102;2022-12-18T10:30:42;36.00;;;14.15;;
75488;SDS011;64069;46.396;48.102;2022-12-18T10:33:13;32.95;;;12.18;;
75488;SDS011;64069;46.396;48.102;2022-12-18T10:35:42;44.20;;;14.35;;
75488;SDS011;64069;46.396;48.102;2022-12-18T10:46:02;51.17;;;14.30;;
75488;SDS011;64069;46.396;48.102;2022-12-18T10:51:34;50.22;;;22.98;;
75488;SDS011;64069;46.396;48.102;2022-12-18T10:56:39;33.45;;;13.73;;
75488;SDS011;64069;46.396;48.102;2022-12-18T10:59:06;32.35;;;13.68;;
75488;SDS011;64069;46.396;48.102;2022-12-18T11:02:16;38.63;;;15.05;;
75488;SDS011;64069;46.396;48.102;2022-12-18T11:04:49;40.35;;;14.48;;
75488;SDS011;64069;46.396;48.102;2022-12-18T11:07:16;30.63;;;11.57;;
75488;SDS011;64069;46.396;48.102;2022-12-18T11:09:42;32.28;;;12.85;;
75488;SDS011;64069;46.396;48.102;2022-12-18T11:12:15;26.20;;;11.30;;
75488;SDS011;64069;46.396;48.102;2022-12-18T11:14:48;30.00;;;11.13;;
75488;SDS011;64069;46.396;48.102;2022-12-18T11:17:21;37.42;;;14.35;;
75488;SDS011;64069;46.396;48.102;2022-12-18T11:20:51;43.60;;;14.95;;
75488;SDS011;64069;46.396;48.102;2022-12-18T11:22:54;35.70;;;12.93;;
75488;SDS011;64069;46.396;48.102;2022-12-18T11:25:32;27.08;;;11.07;;
75488;SDS011;64069;46.396;48.102;2022-12-18T11:27:59;27.52;;;10.65;;
75488;SDS011;64069;46.396;48.102;2022-12-18T11:38:17;37.03;;;14.45;;
75488;SDS011;64069;46.396;48.102;2022-12-18T11:40:45;35.20;;;13.25;;
75488;SDS011;64069;46.396;48.102;2022-12-18T11:43:22;31.40;;;12.73;;
75488;SDS011;64069;46.396;48.102;2022-12-18T11:46:19;27.80;;;11.40;;
75488;SDS011;64069;46.396;48.102;2022-12-18T11:51:34;56.45;;;20.15;;
75488;SDS011;64069;46.396;48.102;2022-12-18T11:54:13;34.90;;;14.20;;
75488;SDS011;64069;46.396;48.102;2022-12-18T11:56:46;37.78;;;9.38;;
75488;SDS011;64069;46.396;48.102;2022-12-18T12:11:01;25.45;;;11.10;;
75488;SDS011;64069;46.396;48.102;2022-12-18T12:21:43;36.38;;;13.30;;
75488;SDS011;64069;46.396;48.102;2022-12-18T12:24:49;33.20;;;12.05;;
75488;SDS011;64069;46.396;48.102;2022-12-18T12:30:22;34.13;;;13.57;;
75488;SDS011;64069;46.396;48.102;2022-12-18T12:41:06;34.17;;;13.15;;
75488;SDS011;64069;46.396;48.102;2022-12-18T12:44:03;33.30;;;12.27;;
75488;SDS011;64069;46.396;48.102;2022-12-18T12:46:34;37.13;;;13.20;;
75488;SDS011;64069;46.396;48.102;2022-12-18T12:49:09;38.45;;;13.75;;
75488;SDS011;64069;46.396;48.102;2022-12-18T12:51:41;43.63;;;15.05;;
75488;SDS011;64069;46.396;48.102;2022-12-18T12:54:15;38.45;;;14.00;;
75488;SDS011;64069;46.396;48.102;2022-12-18T12:56:50;38.38;;;14.55;;
75488;SDS011;64069;46.396;48.102;2022-12-18T12:59:31;39.47;;;14.90;;
75488;SDS011;64069;46.396;48.102;2022-12-18T13:02:22;45.65;;;17.52;;
75488;SDS011;64069;46.396;48.102;2022-12-18T13:05:03;43.83;;;15.48;;
75488;SDS011;64069;46.396;48.102;2022-12-18T13:07:47;67.40;;;24.30;;
75488;SDS011;64069;46.396;48.102;2022-12-18T13:10:25;74.20;;;26.52;;
75488;SDS011;64069;46.396;48.102;2022-12-18T13:12:57;65.57;;;25.92;;
75488;SDS011;64069;46.396;48.102;2022-12-18T13:20:35;54.42;;;18.10;;
75488;SDS011;64069;46.396;48.102;2022-12-18T13:28:21;50.35;;;16.23;;
75488;SDS011;64069;46.396;48.102;2022-12-18T13:31:07;54.95;;;17.50;;
75488;SDS011;64069;46.396;48.102;2022-12-18T13:33:37;57.08;;;20.17;;
75488;SDS011;64069;46.396;48.102;2022-12-18T13:38:44;57.92;;;18.13;;
75488;SDS011;64069;46.396;48.102;2022-12-18T13:44:38;55.72;;;19.45;;
75488;SDS011;64069;46.396;48.102;2022-12-18T13:47:03;49.28;;;17.35;;
75488;SDS011;64069;46.396;48.102;2022-12-18T13:49:40;58.38;;;20.65;;
75488;SDS011;64069;46.396;48.102;2022-12-18T13:52:41;62.05;;;22.10;;
75488;SDS011;64069;46.396;48.102;2022-12-18T13:55:04;62.10;;;20.95;;
75488;SDS011;64069;46.396;48.102;2022-12-18T13:57:44;58.35;;;22.40;;
75488;SDS011;64069;46.396;48.102;2022-12-18T14:02:48;56.65;;;19.75;;
75488;SDS011;64069;46.396;48.102;2022-12-18T14:05:22;51.20;;;18.17;;
75488;SDS011;64069;46.396;48.102;2022-12-18T14:08:00;55.92;;;18.88;;
75488;SDS011;64069;46.396;48.102;2022-12-18T14:10:33;51.95;;;18.42;;
75488;SDS011;64069;46.396;48.102;2022-12-18T14:13:02;65.28;;;21.60;;
75488;SDS011;64069;46.396;48.102;2022-12-18T14:15:40;68.70;;;17.50;;
75488;SDS011;64069;46.396;48.102;2022-12-18T14:20:45;56.25;;;17.92;;
75488;SDS011;64069;46.396;48.102;2022-12-18T14:25:59;63.65;;;17.77;;
75488;SDS011;64069;46.396;48.102;2022-12-18T14:28:44;72.60;;;19.05;;
75488;SDS011;64069;46.396;48.102;2022-12-18T14:31:24;67.50;;;18.33;;
75488;SDS011;64069;46.396;48.102;2022-12-18T14:33:56;61.83;;;17.92;;
75488;SDS011;64069;46.396;48.102;2022-12-18T14:36:23;70.70;;;18.67;;
75488;SDS011;64069;46.396;48.102;2022-12-18T14:38:52;65.03;;;17.23;;
75488;SDS011;64069;46.396;48.102;2022-12-18T14:41:20;53.92;;;16.25;;
75488;SDS011;64069;46.396;48.102;2022-12-18T14:43:48;56.47;;;18.55;;
75488;SDS011;64069;46.396;48.102;2022-12-18T14:46:34;56.92;;;17.05;;
75488;SDS011;64069;46.396;48.102;2022-12-18T14:49:14;57.53;;;19.45;;
75488;SDS011;64069;46.396;48.102;2022-12-18T14:51:54;58.88;;;18.20;;
75488;SDS011;64069;46.396;48.102;2022-12-18T14:54:23;70.50;;;19.95;;
75488;SDS011;64069;46.396;48.102;2022-12-18T14:57:03;62.63;;;21.92;;
75488;SDS011;64069;46.396;48.102;2022-12-18T15:02:02;61.72;;;20.58;;
75488;SDS011;64069;46.396;48.102;2022-12-18T15:04:43;78.60;;;22.33;;
75488;SDS011;64069;46.396;48.102;2022-12-18T15:07:18;72.22;;;22.70;;
75488;SDS011;64069;46.396;48.102;2022-12-18T15:23:15;79.30;;;24.08;;
75488;SDS011;64069;46.396;48.102;2022-12-18T15:25:55;71.72;;;22.40;;
75488;SDS011;64069;46.396;48.102;2022-12-18T15:28:34;72.90;;;22.55;;
75488;SDS011;64069;46.396;48.102;2022-12-18T15:33:35;64.55;;;19.95;;
75488;SDS011;64069;46.396;48.102;2022-12-18T15:36:04;72.97;;;21.83;;
75488;SDS011;64069;46.396;48.102;2022-12-18T15:38:38;77.03;;;24.50;;
75488;SDS011;64069;46.396;48.102;2022-12-18T15:41:04;75.30;;;22.88;;
75488;SDS011;64069;46.396;48.102;2022-12-18T15:43:30;68.15;;;21.20;;
75488;SDS011;64069;46.396;48.102;2022-12-18T15:48:43;72.22;;;23.35;;
75488;SDS011;64069;46.396;48.102;2022-12-18T15:51:18;75.07;;;23.80;;
75488;SDS011;64069;46.396;48.102;2022-12-18T15:53:47;78.25;;;22.63;;
75488;SDS011;64069;46.396;48.102;2022-12-18T15:56:15;79.22;;;22.35;;
75488;SDS011;64069;46.396;48.102;2022-12-18T15:59:00;73.80;;;24.92;;
75488;SDS011;64069;46.396;48.102;2022-12-18T16:01:28;77.22;;;24.42;;
75488;SDS011;64069;46.396;48.102;2022-12-18T16:03:56;72.45;;;24.25;;
75488;SDS011;64069;46.396;48.102;2022-12-18T16:06:23;73.43;;;22.40;;
75488;SDS011;64069;46.396;48.102;2022-12-18T16:08:49;70.10;;;24.08;;
75488;SDS011;64069;46.396;48.102;2022-12-18T16:14:28;64.28;;;22.02;;
75488;SDS011;64069;46.396;48.102;2022-12-18T16:16:55;67.82;;;23.00;;
75488;SDS011;64069;46.396;48.102;2022-12-18T16:19:23;64.93;;;21.77;;
75488;SDS011;64069;46.396;48.102;2022-12-18T16:21:51;68.32;;;22.40;;
75488;SDS011;64069;46.396;48.102;2022-12-18T16:26:49;67.35;;;20.05;;
75488;SDS011;64069;46.396;48.102;2022-12-18T16:29:16;75.32;;;23.30;;
75488;SDS011;64069;46.396;48.102;2022-12-18T16:31:44;66.47;;;22.08;;
75488;SDS011;64069;46.396;48.102;2022-12-18T16:34:13;68.15;;;22.20;;
75488;SDS011;64069;46.396;48.102;2022-12-18T16:36:53;66.90;;;22.10;;
75488;SDS011;64069;46.396;48.102;2022-12-18T16:39:20;70.97;;;22.73;;
75488;SDS011;64069;46.396;48.102;2022-12-18T16:41:46;65.05;;;20.80;;
75488;SDS011;64069;46.396;48.102;2022-12-18T16:44:13;60.85;;;21.15;;
75488;SDS011;64069;46.396;48.102;2022-12-18T16:46:40;65.15;;;23.27;;
75488;SDS011;64069;46.396;48.102;2022-12-18T16:49:11;65.50;;;21.95;;
75488;SDS011;64069;46.396;48.102;2022-12-18T16:51:38;62.25;;;20.10;;
75488;SDS011;64069;46.396;48.102;2022-12-18T16:54:04;59.90;;;20.30;;
75488;SDS011;64069;46.396;48.102;2022-12-18T16:56:31;63.55;;;22.15;;
75488;SDS011;64069;46.396;48.102;2022-12-18T16:58:58;62.10;;;20.92;;
75488;SDS011;64069;46.396;48.102;2022-12-18T17:01:27;71.78;;;21.55;;
75488;SDS011;64069;46.396;48.102;2022-12-18T17:04:04;57.45;;;21.00;;